createdAt,value
2019-01-20T00:02:26.430Z,-3.10
2019-01-20T00:04:57.193Z,-3.10
2019-01-20T00:07:28.360Z,-3.10
2019-01-20T00:09:59.102Z,-3.20
2019-01-20T00:12:30.766Z,-3.20
2019-01-20T00:15:02.446Z,-3.20
2019-01-20T00:17:33.648Z,-3.30
2019-01-20T00:20:10.632Z,-3.30
2019-01-20T00:22:42.179Z,-3.30
2019-01-20T00:25:13.955Z,-3.30
2019-01-20T00:27:44.791Z,-3.30
2019-01-20T00:30:16.520Z,-3.40
2019-01-20T00:32:47.729Z,-3.40
2019-01-20T00:35:19.578Z,-3.40
2019-01-20T00:37:50.742Z,-3.40
2019-01-20T00:40:21.850Z,-3.40
2019-01-20T00:42:53.322Z,-3.40
2019-01-20T00:45:24.335Z,-3.50
2019-01-20T00:47:55.165Z,-3.50
2019-01-20T00:50:26.536Z,-3.50
2019-01-20T00:52:58.047Z,-3.60
2019-01-20T00:55:29.297Z,-3.60
2019-01-20T00:58:00.519Z,-3.60
2019-01-20T01:00:33.380Z,-3.60
2019-01-20T01:03:04.661Z,-3.60
2019-01-20T01:05:36.119Z,-3.70
2019-01-20T01:08:07.176Z,-3.70
2019-01-20T01:10:38.048Z,-3.70
2019-01-20T01:13:10.376Z,-3.70
2019-01-20T01:15:41.547Z,-3.70
2019-01-20T01:18:12.745Z,-3.70
2019-01-20T01:20:44.016Z,-3.70
2019-01-20T01:23:15.579Z,-3.80
2019-01-20T01:25:47.144Z,-3.80
2019-01-20T01:28:18.085Z,-3.80
2019-01-20T01:30:49.406Z,-3.80
2019-01-20T01:33:20.572Z,-3.80
2019-01-20T01:35:51.871Z,-3.80
2019-01-20T01:38:23.056Z,-3.80
2019-01-20T01:40:54.266Z,-3.80
2019-01-20T01:43:25.327Z,-3.80
2019-01-20T01:45:56.626Z,-3.80
2019-01-20T01:48:27.987Z,-3.80
2019-01-20T01:50:59.746Z,-3.80
2019-01-20T01:53:30.712Z,-3.80
2019-01-20T01:56:02.900Z,-3.80
2019-01-20T01:58:34.493Z,-3.80
2019-01-20T02:01:07.931Z,-3.80
2019-01-20T02:03:39.807Z,-3.80
2019-01-20T02:06:11.767Z,-3.80
2019-01-20T02:08:42.685Z,-3.80
2019-01-20T02:11:14.024Z,-3.90
2019-01-20T02:13:46.270Z,-3.90
2019-01-20T02:16:18.860Z,-3.90
2019-01-20T02:18:50.826Z,-3.90
2019-01-20T02:21:23.673Z,-3.80
2019-01-20T02:23:54.733Z,-3.70
2019-01-20T02:26:26.492Z,-3.60
2019-01-20T02:28:57.199Z,-3.50
2019-01-20T02:31:28.860Z,-3.40
2019-01-20T02:33:59.523Z,-3.40
2019-01-20T02:36:30.648Z,-3.30
2019-01-20T02:39:02.459Z,-3.30
2019-01-20T02:41:34.336Z,-3.20
2019-01-20T02:44:06.625Z,-3.20
2019-01-20T02:46:38.168Z,-3.20
2019-01-20T02:49:09.228Z,-3.20
2019-01-20T02:51:44.326Z,-3.20
2019-01-20T02:54:15.224Z,-3.10
2019-01-20T02:56:46.377Z,-3.10
2019-01-20T02:59:18.009Z,-3.10
2019-01-20T03:01:53.090Z,-3.10
2019-01-20T03:04:25.705Z,-3.00
2019-01-20T03:06:56.870Z,-3.10
2019-01-20T03:09:27.942Z,-3.00
2019-01-20T03:12:03.373Z,-3.00
2019-01-20T03:14:32.568Z,-2.90
2019-01-20T03:17:03.788Z,-2.90
2019-01-20T03:19:37.309Z,-2.90
2019-01-20T03:22:08.147Z,-2.80
2019-01-20T03:24:39.079Z,-2.90
2019-01-20T03:27:09.976Z,-2.80
2019-01-20T03:29:41.036Z,-2.80
2019-01-20T03:32:12.019Z,-2.80
2019-01-20T03:34:43.330Z,-2.80
2019-01-20T03:37:14.165Z,-2.80
2019-01-20T03:39:45.226Z,-2.80
2019-01-20T03:42:16.688Z,-2.80
2019-01-20T03:44:48.218Z,-2.80
2019-01-20T03:47:18.978Z,-2.80
2019-01-20T03:49:50.681Z,-2.70
2019-01-20T03:52:21.500Z,-2.70
2019-01-20T03:54:52.436Z,-2.80
2019-01-20T03:57:23.210Z,-2.70
2019-01-20T03:59:54.972Z,-2.80
2019-01-20T04:02:26.500Z,-2.80
2019-01-20T04:04:57.763Z,-2.80
2019-01-20T04:07:29.086Z,-2.80
2019-01-20T04:10:00.477Z,-2.80
2019-01-20T04:12:31.252Z,-2.80
2019-01-20T04:15:02.828Z,-2.70
2019-01-20T04:17:33.863Z,-2.70
2019-01-20T04:20:05.970Z,-2.70
2019-01-20T04:22:37.321Z,-2.70
2019-01-20T04:25:10.916Z,-2.70
2019-01-20T04:27:41.969Z,-2.80
2019-01-20T04:30:15.379Z,-2.80
2019-01-20T04:32:46.346Z,-2.90
2019-01-20T04:35:19.218Z,-2.90
2019-01-20T04:37:50.050Z,-2.90
2019-01-20T04:40:23.000Z,-3.00
2019-01-20T04:42:53.916Z,-3.10
2019-01-20T04:45:25.074Z,-3.10
2019-01-20T04:47:55.986Z,-3.10
2019-01-20T04:50:27.080Z,-3.20
2019-01-20T04:52:58.111Z,-3.20
2019-01-20T04:55:28.715Z,-3.30
2019-01-20T04:58:00.139Z,-3.30
2019-01-20T05:00:31.451Z,-3.20
2019-01-20T05:03:03.329Z,-3.10
2019-01-20T05:05:34.091Z,-3.10
2019-01-20T05:08:05.363Z,-3.10
2019-01-20T05:10:36.229Z,-3.10
2019-01-20T05:13:07.699Z,-3.20
2019-01-20T05:15:39.204Z,-3.20
2019-01-20T05:18:10.788Z,-3.30
2019-01-20T05:20:42.714Z,-3.30
2019-01-20T05:23:13.660Z,-3.40
2019-01-20T05:25:44.598Z,-3.50
2019-01-20T05:28:15.932Z,-3.50
2019-01-20T05:30:47.464Z,-3.50
2019-01-20T05:33:19.270Z,-3.50
2019-01-20T05:35:50.322Z,-3.60
2019-01-20T05:38:21.300Z,-3.60
2019-01-20T05:40:52.509Z,-3.60
2019-01-20T05:43:23.916Z,-3.60
2019-01-20T05:45:55.326Z,-3.60
2019-01-20T05:48:26.083Z,-3.60
2019-01-20T05:50:57.625Z,-3.60
2019-01-20T05:53:28.539Z,-3.60
2019-01-20T05:55:59.623Z,-3.60
2019-01-20T05:58:31.327Z,-3.60
2019-01-20T06:01:02.707Z,-3.60
2019-01-20T06:03:33.940Z,-3.60
2019-01-20T06:06:05.908Z,-3.50
2019-01-20T06:08:36.848Z,-3.60
2019-01-20T06:11:09.577Z,-3.60
2019-01-20T06:13:40.669Z,-3.60
2019-01-20T06:16:11.940Z,-3.60
2019-01-20T06:18:44.338Z,-3.60
2019-01-20T06:21:15.901Z,-3.60
2019-01-20T06:23:48.891Z,-3.60
2019-01-20T06:26:19.244Z,-3.60
2019-01-20T06:28:49.974Z,-3.60
2019-01-20T06:31:20.733Z,-3.60
2019-01-20T06:33:52.182Z,-3.70
2019-01-20T06:36:23.416Z,-3.70
2019-01-20T06:38:54.411Z,-3.80
2019-01-20T06:41:25.844Z,-3.80
2019-01-20T06:43:57.115Z,-3.80
2019-01-20T06:46:28.574Z,-3.80
2019-01-20T06:48:59.493Z,-3.80
2019-01-20T06:51:31.356Z,-3.70
2019-01-20T06:54:02.629Z,-3.80
2019-01-20T06:56:34.217Z,-3.70
2019-01-20T06:59:05.524Z,-3.80
2019-01-20T07:01:37.463Z,-3.80
2019-01-20T07:04:09.176Z,-3.80
2019-01-20T07:06:40.216Z,-3.70
2019-01-20T07:09:11.952Z,-3.80
2019-01-20T07:11:43.393Z,-3.80
2019-01-20T07:14:14.867Z,-3.70
2019-01-20T07:16:45.820Z,-3.70
2019-01-20T07:19:22.148Z,-3.70
2019-01-20T07:21:53.346Z,-3.60
2019-01-20T07:24:25.994Z,-3.60
2019-01-20T07:26:57.078Z,-3.50
2019-01-20T07:29:29.700Z,-3.50
2019-01-20T07:32:00.577Z,-3.40
2019-01-20T07:34:32.232Z,-3.30
2019-01-20T07:37:02.781Z,-3.10
2019-01-20T07:39:34.803Z,-2.90
2019-01-20T07:42:06.203Z,-2.80
2019-01-20T07:44:37.157Z,-2.60
2019-01-20T07:47:08.185Z,-2.40
2019-01-20T07:49:38.901Z,-2.20
2019-01-20T07:52:10.537Z,-2.00
2019-01-20T07:54:41.559Z,-1.80
2019-01-20T07:57:14.386Z,-1.60
2019-01-20T07:59:45.366Z,-1.50
2019-01-20T08:02:16.121Z,-1.40
2019-01-20T08:04:47.328Z,-1.40
2019-01-20T08:07:18.811Z,-1.40
2019-01-20T08:09:54.085Z,-1.30
2019-01-20T08:12:24.924Z,-1.10
2019-01-20T08:14:56.354Z,-0.90
2019-01-20T08:17:27.545Z,-0.60
2019-01-20T08:19:58.729Z,-0.40
2019-01-20T08:22:30.087Z,-0.10
2019-01-20T08:25:01.207Z,0.10
2019-01-20T08:27:32.415Z,0.40
2019-01-20T08:30:02.937Z,0.70
2019-01-20T08:32:33.912Z,0.80
2019-01-20T08:35:05.776Z,0.70
2019-01-20T08:37:36.975Z,0.80
2019-01-20T08:40:11.204Z,1.00
2019-01-20T08:42:42.418Z,1.20
2019-01-20T08:45:18.452Z,1.40
2019-01-20T08:47:53.801Z,1.50
2019-01-20T08:50:25.385Z,1.60
2019-01-20T08:52:57.277Z,1.80
2019-01-20T08:55:31.619Z,1.90
2019-01-20T08:58:02.605Z,2.00
2019-01-20T09:00:34.045Z,2.00
2019-01-20T09:03:05.168Z,2.10
2019-01-20T09:05:36.054Z,2.20
2019-01-20T09:08:07.321Z,2.30
2019-01-20T09:10:38.648Z,2.40
2019-01-20T09:13:10.378Z,2.40
2019-01-20T09:15:41.023Z,2.50
2019-01-20T09:18:12.059Z,2.60
2019-01-20T09:20:42.705Z,2.60
2019-01-20T09:23:13.559Z,2.60
2019-01-20T09:25:44.041Z,2.70
2019-01-20T09:28:15.442Z,2.80
2019-01-20T09:30:46.842Z,2.80
2019-01-20T09:33:24.544Z,2.90
2019-01-20T09:35:50.779Z,2.90
2019-01-20T09:38:22.222Z,2.80
2019-01-20T09:40:52.658Z,2.80
2019-01-20T09:43:23.749Z,2.80
2019-01-20T09:45:56.361Z,2.90
2019-01-20T09:48:27.919Z,3.10
2019-01-20T09:50:59.035Z,3.30
2019-01-20T09:53:30.484Z,3.40
2019-01-20T09:56:01.348Z,3.50
2019-01-20T09:58:32.086Z,3.50
2019-01-20T10:01:04.031Z,3.50
2019-01-20T10:03:35.179Z,3.50
2019-01-20T10:06:06.086Z,3.40
2019-01-20T10:08:38.104Z,3.50
2019-01-20T10:11:09.391Z,3.50
2019-01-20T10:13:40.452Z,3.60
2019-01-20T10:16:14.119Z,3.70
2019-01-20T10:18:45.186Z,3.80
2019-01-20T10:21:15.997Z,4.00
2019-01-20T10:23:47.519Z,4.10
2019-01-20T10:26:18.331Z,4.30
2019-01-20T10:28:49.153Z,4.40
2019-01-20T10:31:19.914Z,4.40
2019-01-20T10:33:51.174Z,4.50
2019-01-20T10:36:22.059Z,4.60
2019-01-20T10:38:52.962Z,4.70
2019-01-20T10:41:23.661Z,4.80
2019-01-20T10:43:54.334Z,5.00
2019-01-20T10:46:25.186Z,5.00
2019-01-20T10:48:57.350Z,5.10
2019-01-20T10:51:28.706Z,5.00
2019-01-20T10:53:59.816Z,5.00
2019-01-20T10:56:30.837Z,5.00
2019-01-20T10:59:01.825Z,5.10
2019-01-20T11:01:33.031Z,5.10
2019-01-20T11:04:04.303Z,5.10
2019-01-20T11:06:35.375Z,5.10
2019-01-20T11:09:07.768Z,5.20
2019-01-20T11:11:38.719Z,5.20
2019-01-20T11:14:10.477Z,5.30
2019-01-20T11:16:41.795Z,5.30
2019-01-20T11:19:12.432Z,5.30
2019-01-20T11:21:43.370Z,5.30
2019-01-20T11:24:14.802Z,5.30
2019-01-20T11:26:45.881Z,5.20
2019-01-20T11:29:16.484Z,5.20
2019-01-20T11:31:47.613Z,5.20
2019-01-20T11:34:19.289Z,5.20
2019-01-20T11:36:50.207Z,5.10
2019-01-20T11:39:21.354Z,5.10
2019-01-20T11:41:52.156Z,5.10
2019-01-20T11:44:23.232Z,5.10
2019-01-20T11:46:53.955Z,4.90
2019-01-20T11:49:24.865Z,4.60
2019-01-20T11:51:55.817Z,4.40
2019-01-20T11:54:27.897Z,4.30
2019-01-20T11:56:59.197Z,4.20
2019-01-20T11:59:30.250Z,4.20
2019-01-20T12:02:01.400Z,4.20
2019-01-20T12:04:32.196Z,4.30
2019-01-20T12:07:03.228Z,4.30
2019-01-20T12:09:34.358Z,4.30
2019-01-20T12:12:07.321Z,4.40
2019-01-20T12:14:38.890Z,4.40
2019-01-20T12:17:09.555Z,4.40
2019-01-20T12:19:41.178Z,4.50
2019-01-20T12:22:13.112Z,4.50
2019-01-20T12:24:43.531Z,4.50
2019-01-20T12:27:14.989Z,4.40
2019-01-20T12:29:51.831Z,4.30
2019-01-20T12:32:18.845Z,4.30
2019-01-20T12:34:50.944Z,4.50
2019-01-20T12:37:21.731Z,4.60
2019-01-20T12:39:52.463Z,4.60
2019-01-20T12:42:25.235Z,4.80
2019-01-20T12:44:56.592Z,4.90
2019-01-20T12:47:27.434Z,4.80
2019-01-20T12:49:58.150Z,4.70
2019-01-20T12:52:28.833Z,4.60
2019-01-20T12:54:59.572Z,4.50
2019-01-20T12:57:30.540Z,4.30
2019-01-20T13:00:01.081Z,4.30
2019-01-20T13:02:32.312Z,4.30
2019-01-20T13:05:03.671Z,4.20
2019-01-20T13:07:34.078Z,4.10
2019-01-20T13:10:05.976Z,4.10
2019-01-20T13:12:36.514Z,4.00
2019-01-20T13:15:09.274Z,3.80
2019-01-20T13:17:40.307Z,3.60
2019-01-20T13:20:14.867Z,3.40
2019-01-20T13:22:45.747Z,3.20
2019-01-20T13:25:20.580Z,3.00
2019-01-20T13:27:51.144Z,2.80
2019-01-20T13:30:23.979Z,2.50
2019-01-20T13:32:54.907Z,2.20
2019-01-20T13:35:26.697Z,1.80
2019-01-20T13:38:03.472Z,1.60
2019-01-20T13:40:40.745Z,1.50
2019-01-20T13:43:14.939Z,1.40
2019-01-20T13:45:46.047Z,1.30
2019-01-20T13:48:17.164Z,1.20
2019-01-20T13:50:47.833Z,1.20
2019-01-20T13:53:19.116Z,1.10
2019-01-20T13:55:51.629Z,1.10
2019-01-20T13:58:22.965Z,1.00
2019-01-20T14:00:53.683Z,0.90
2019-01-20T14:03:24.927Z,0.70
2019-01-20T14:05:55.757Z,0.60
2019-01-20T14:08:27.032Z,0.50
2019-01-20T14:10:57.640Z,0.40
2019-01-20T14:13:28.563Z,0.30
2019-01-20T14:15:59.629Z,0.20
2019-01-20T14:18:30.518Z,0.10
2019-01-20T14:21:01.994Z,0.10
2019-01-20T14:23:34.198Z,0.00
2019-01-20T14:26:06.039Z,0.00
2019-01-20T14:28:36.245Z,-0.10
2019-01-20T14:31:07.152Z,-0.10
2019-01-20T14:33:37.872Z,-0.20
2019-01-20T14:36:09.150Z,-0.20
2019-01-20T14:38:40.463Z,-0.30
2019-01-20T14:41:12.099Z,-0.40
2019-01-20T14:43:43.263Z,-0.40
2019-01-20T14:46:14.381Z,-0.50
2019-01-20T14:48:45.548Z,-0.50
2019-01-20T14:51:16.601Z,-0.60
2019-01-20T14:53:47.716Z,-0.60
2019-01-20T14:56:19.711Z,-0.70
2019-01-20T14:58:51.401Z,-0.70
2019-01-20T15:01:23.463Z,-0.80
2019-01-20T15:03:53.832Z,-0.90
2019-01-20T15:06:25.436Z,-1.00
2019-01-20T15:08:56.389Z,-1.00
2019-01-20T15:11:28.700Z,-1.10
2019-01-20T15:14:00.365Z,-1.20
2019-01-20T15:16:31.269Z,-1.20
2019-01-20T15:19:02.314Z,-1.30
2019-01-20T15:21:33.590Z,-1.40
2019-01-20T15:24:05.092Z,-1.50
2019-01-20T15:26:36.029Z,-1.50
2019-01-20T15:29:33.160Z,-1.60
2019-01-20T15:32:16.311Z,-1.70
2019-01-20T15:35:03.485Z,-1.80
2019-01-20T15:37:52.057Z,-1.80
2019-01-20T15:40:37.716Z,-1.90
2019-01-20T15:43:43.031Z,-1.90
2019-01-20T15:46:38.622Z,-2.00
2019-01-20T15:49:19.563Z,-2.10
2019-01-20T15:52:05.189Z,-2.10
2019-01-20T15:54:52.844Z,-2.20
2019-01-20T15:57:25.918Z,-2.20
2019-01-20T16:00:13.500Z,-2.30
2019-01-20T16:03:07.667Z,-2.30
2019-01-20T16:06:09.606Z,-2.30
2019-01-20T16:08:50.040Z,-2.30
2019-01-20T16:11:21.129Z,-2.30
2019-01-20T16:14:11.141Z,-2.30
2019-01-20T16:17:05.418Z,-2.30
2019-01-20T16:19:41.389Z,-2.20
2019-01-20T16:22:22.369Z,-2.20
2019-01-20T16:25:01.119Z,-2.10
2019-01-20T16:27:41.012Z,-2.00
2019-01-20T16:30:34.886Z,-2.00
2019-01-20T16:33:14.946Z,-2.00
2019-01-20T16:36:09.393Z,-1.90
2019-01-20T16:38:58.506Z,-1.90
2019-01-20T16:41:51.602Z,-1.80
2019-01-20T16:44:46.844Z,-1.80
2019-01-20T16:47:26.618Z,-1.80
2019-01-20T16:50:04.413Z,-1.80
2019-01-20T16:52:39.884Z,-1.80
2019-01-20T16:55:16.742Z,-1.80
2019-01-20T16:57:48.666Z,-1.80
2019-01-20T17:00:46.348Z,-1.80
2019-01-20T17:03:20.006Z,-1.80
2019-01-20T17:06:02.882Z,-1.80
2019-01-20T17:08:46.276Z,-1.80
2019-01-20T17:11:18.858Z,-1.80
2019-01-20T17:14:04.891Z,-1.80
2019-01-20T17:17:01.199Z,-1.80
2019-01-20T17:19:47.426Z,-1.70
2019-01-20T17:22:31.630Z,-1.80
2019-01-20T17:25:20.660Z,-1.80
2019-01-20T17:28:14.164Z,-1.80
2019-01-20T17:30:52.571Z,-1.80
2019-01-20T17:33:36.481Z,-1.80
2019-01-20T17:36:19.371Z,-1.90
2019-01-20T17:39:00.698Z,-1.90
2019-01-20T17:41:49.799Z,-1.90
2019-01-20T17:44:31.844Z,-1.90
2019-01-20T17:47:13.537Z,-1.90
2019-01-20T17:49:47.378Z,-1.90
2019-01-20T17:52:26.946Z,-1.90
2019-01-20T17:55:15.468Z,-1.90
2019-01-20T17:57:50.628Z,-1.90
2019-01-20T18:00:42.875Z,-1.90
2019-01-20T18:03:29.358Z,-1.90
2019-01-20T18:06:12.586Z,-1.90
2019-01-20T18:09:03.227Z,-1.90
2019-01-20T18:11:48.430Z,-1.90
2019-01-20T18:14:34.230Z,-1.90
2019-01-20T18:17:22.629Z,-1.90
2019-01-20T18:20:13.298Z,-1.90
2019-01-20T18:23:05.473Z,-1.90
2019-01-20T18:25:41.771Z,-1.90
2019-01-20T18:28:14.476Z,-1.90
2019-01-20T18:30:54.809Z,-1.90
2019-01-20T18:33:36.949Z,-1.90
2019-01-20T18:36:19.487Z,-1.90
2019-01-20T18:38:50.013Z,-1.90
2019-01-20T18:41:28.951Z,-1.90
2019-01-20T18:44:13.220Z,-1.80
2019-01-20T18:46:50.133Z,-1.80
2019-01-20T18:49:26.008Z,-1.80
2019-01-20T18:51:56.685Z,-1.80
2019-01-20T18:54:29.351Z,-1.80
2019-01-20T18:57:00.367Z,-1.80
2019-01-20T18:59:53.416Z,-1.80
2019-01-20T19:02:45.915Z,-1.80
2019-01-20T19:05:30.606Z,-1.90
2019-01-20T19:08:08.825Z,-1.90
2019-01-20T19:11:15.711Z,-1.90
2019-01-20T19:13:53.071Z,-2.00
2019-01-20T19:16:28.417Z,-2.10
2019-01-20T19:18:59.674Z,-2.20
2019-01-20T19:21:42.047Z,-2.20
2019-01-20T19:24:14.425Z,-2.20
2019-01-20T19:26:52.382Z,-2.30
2019-01-20T19:29:45.179Z,-2.30
2019-01-20T19:32:25.956Z,-2.40
2019-01-20T19:35:00.438Z,-2.40
2019-01-20T19:37:39.308Z,-2.40
2019-01-20T19:40:19.348Z,-2.50
2019-01-20T19:42:55.053Z,-2.50
2019-01-20T19:45:31.285Z,-2.50
2019-01-20T19:48:24.465Z,-2.60
2019-01-20T19:51:15.200Z,-2.60
2019-01-20T19:53:58.534Z,-2.60
2019-01-20T19:56:48.283Z,-2.60
2019-01-20T19:59:35.718Z,-2.70
2019-01-20T20:02:12.678Z,-2.70
2019-01-20T20:04:52.281Z,-2.70
2019-01-20T20:07:27.792Z,-2.80
2019-01-20T20:10:14.640Z,-2.80
2019-01-20T20:12:48.805Z,-2.80
2019-01-20T20:15:30.351Z,-2.80
2019-01-20T20:18:09.871Z,-2.90
2019-01-20T20:20:52.995Z,-2.90
2019-01-20T20:23:50.286Z,-2.90
2019-01-20T20:26:24.194Z,-2.90
2019-01-20T20:29:19.482Z,-2.90
2019-01-20T20:32:15.870Z,-2.90
2019-01-20T20:35:10.087Z,-2.90
2019-01-20T20:38:12.807Z,-2.80
2019-01-20T20:41:16.191Z,-2.70
2019-01-20T20:43:55.319Z,-2.70
2019-01-20T20:46:44.782Z,-2.60
2019-01-20T20:49:44.618Z,-2.60
2019-01-20T20:52:19.706Z,-2.50
2019-01-20T20:54:51.211Z,-2.50
2019-01-20T20:57:25.558Z,-2.50
2019-01-20T20:59:58.948Z,-2.50
2019-01-20T21:02:31.098Z,-2.50
2019-01-20T21:05:06.576Z,-2.50
2019-01-20T21:07:37.392Z,-2.40
2019-01-20T21:10:16.782Z,-2.40
2019-01-20T21:12:57.321Z,-2.40
2019-01-20T21:15:32.912Z,-2.40
2019-01-20T21:18:29.775Z,-2.40
2019-01-20T21:21:04.047Z,-2.40
2019-01-20T21:23:35.402Z,-2.30
2019-01-20T21:26:07.183Z,-2.30
2019-01-20T21:28:38.213Z,-2.30
2019-01-20T21:31:16.142Z,-2.30
2019-01-20T21:33:52.192Z,-2.30
2019-01-20T21:36:23.745Z,-2.30
2019-01-20T21:39:26.596Z,-2.20
2019-01-20T21:41:58.888Z,-2.20
2019-01-20T21:44:38.287Z,-2.10
2019-01-20T21:47:21.546Z,-2.10
2019-01-20T21:49:58.598Z,-2.10
2019-01-20T21:52:35.151Z,-2.10
2019-01-20T21:55:06.575Z,-2.10
2019-01-20T21:57:37.712Z,-2.10
2019-01-20T22:00:12.468Z,-2.00
2019-01-20T22:02:45.603Z,-2.00
2019-01-20T22:05:16.267Z,-2.00
2019-01-20T22:07:56.186Z,-2.00
2019-01-20T22:10:31.061Z,-1.90
2019-01-20T22:13:18.184Z,-1.90
2019-01-20T22:15:51.836Z,-1.90
2019-01-20T22:18:36.742Z,-1.90
2019-01-20T22:21:07.352Z,-1.90
2019-01-20T22:23:53.222Z,-1.90
2019-01-20T22:26:26.476Z,-1.90
2019-01-20T22:29:16.855Z,-1.90
2019-01-20T22:31:48.834Z,-1.90
2019-01-20T22:34:26.926Z,-1.90
2019-01-20T22:36:58.471Z,-1.80
2019-01-20T22:39:33.167Z,-1.80
2019-01-20T22:42:03.708Z,-1.80
2019-01-20T22:44:34.122Z,-1.80
2019-01-20T22:47:10.063Z,-1.80
2019-01-20T22:49:41.806Z,-1.80
2019-01-20T22:52:12.973Z,-1.80
2019-01-20T22:54:44.251Z,-1.80
2019-01-20T22:57:16.690Z,-1.80
2019-01-20T22:59:47.500Z,-1.80
2019-01-20T23:02:19.430Z,-1.90
2019-01-20T23:04:50.338Z,-1.90
2019-01-20T23:07:21.344Z,-1.90
2019-01-20T23:09:51.859Z,-1.90
2019-01-20T23:12:23.029Z,-1.90
2019-01-20T23:14:53.951Z,-1.90
2019-01-20T23:17:25.373Z,-1.90
2019-01-20T23:19:56.224Z,-2.00
2019-01-20T23:22:27.535Z,-2.00
2019-01-20T23:24:58.227Z,-1.90
2019-01-20T23:27:29.673Z,-1.90
2019-01-20T23:30:00.926Z,-1.90
2019-01-20T23:32:35.471Z,-1.90
2019-01-20T23:35:07.292Z,-1.90
2019-01-20T23:37:38.732Z,-1.90
2019-01-20T23:40:10.382Z,-1.90
2019-01-20T23:42:41.426Z,-1.90
2019-01-20T23:45:13.192Z,-1.90
2019-01-20T23:47:44.329Z,-1.90
2019-01-20T23:50:16.029Z,-1.90
2019-01-20T23:52:46.403Z,-2.00
2019-01-20T23:55:17.203Z,-2.00
2019-01-20T23:57:47.872Z,-2.00
